sensor_id;sensor_type;location;lat;lon;timestamp;temperature;humidity
27314;DHT22;14800;48.174;9.798;2022-10-31T00:02:05;12.90;83.80
27314;DHT22;14800;48.174;9.798;2022-10-31T00:04:31;12.90;83.80
27314;DHT22;14800;48.174;9.798;2022-10-31T00:06:57;12.90;83.80
27314;DHT22;14800;48.174;9.798;2022-10-31T00:09:22;13.00;84.00
27314;DHT22;14800;48.174;9.798;2022-10-31T00:11:48;13.00;84.50
27314;DHT22;14800;48.174;9.798;2022-10-31T00:14:13;13.00;85.20
27314;DHT22;14800;48.174;9.798;2022-10-31T00:16:39;12.90;85.50
27314;DHT22;14800;48.174;9.798;2022-10-31T00:19:07;13.00;85.50
27314;DHT22;14800;48.174;9.798;2022-10-31T00:21:34;13.00;85.20
27314;DHT22;14800;48.174;9.798;2022-10-31T00:24:00;13.00;84.60
27314;DHT22;14800;48.174;9.798;2022-10-31T00:26:28;13.00;84.30
27314;DHT22;14800;48.174;9.798;2022-10-31T00:28:53;12.90;84.00
27314;DHT22;14800;48.174;9.798;2022-10-31T00:31:19;13.00;83.80
27314;DHT22;14800;48.174;9.798;2022-10-31T00:33:45;12.90;83.70
27314;DHT22;14800;48.174;9.798;2022-10-31T00:36:13;12.80;83.60
27314;DHT22;14800;48.174;9.798;2022-10-31T00:38:40;12.80;83.30
27314;DHT22;14800;48.174;9.798;2022-10-31T00:41:05;12.80;83.30
27314;DHT22;14800;48.174;9.798;2022-10-31T00:43:31;12.70;83.30
27314;DHT22;14800;48.174;9.798;2022-10-31T00:45:56;12.70;83.40
27314;DHT22;14800;48.174;9.798;2022-10-31T00:48:22;12.70;83.10
27314;DHT22;14800;48.174;9.798;2022-10-31T00:50:48;12.70;83.30
27314;DHT22;14800;48.174;9.798;2022-10-31T00:53:13;12.60;83.60
27314;DHT22;14800;48.174;9.798;2022-10-31T00:55:39;12.60;83.60
27314;DHT22;14800;48.174;9.798;2022-10-31T00:58:04;12.50;83.60
27314;DHT22;14800;48.174;9.798;2022-10-31T01:00:30;12.50;83.80
27314;DHT22;14800;48.174;9.798;2022-10-31T01:02:55;12.50;84.00
27314;DHT22;14800;48.174;9.798;2022-10-31T01:05:21;12.40;84.00
27314;DHT22;14800;48.174;9.798;2022-10-31T01:07:47;12.40;84.10
27314;DHT22;14800;48.174;9.798;2022-10-31T01:10:12;12.40;84.10
27314;DHT22;14800;48.174;9.798;2022-10-31T01:12:39;12.40;84.10
27314;DHT22;14800;48.174;9.798;2022-10-31T01:15:05;12.40;84.50
27314;DHT22;14800;48.174;9.798;2022-10-31T01:17:31;12.30;84.80
27314;DHT22;14800;48.174;9.798;2022-10-31T01:19:57;12.30;84.60
27314;DHT22;14800;48.174;9.798;2022-10-31T01:22:22;12.20;84.60
27314;DHT22;14800;48.174;9.798;2022-10-31T01:24:48;12.20;84.50
27314;DHT22;14800;48.174;9.798;2022-10-31T01:27:13;12.30;84.40
27314;DHT22;14800;48.174;9.798;2022-10-31T01:29:39;12.20;84.10
27314;DHT22;14800;48.174;9.798;2022-10-31T01:32:05;12.20;84.00
27314;DHT22;14800;48.174;9.798;2022-10-31T01:34:30;12.20;84.00
27314;DHT22;14800;48.174;9.798;2022-10-31T01:36:56;12.10;83.70
27314;DHT22;14800;48.174;9.798;2022-10-31T01:39:22;12.10;84.50
27314;DHT22;14800;48.174;9.798;2022-10-31T01:41:50;12.00;83.60
27314;DHT22;14800;48.174;9.798;2022-10-31T01:49:39;11.90;83.70
27314;DHT22;14800;48.174;9.798;2022-10-31T01:52:07;11.90;83.60
27314;DHT22;14800;48.174;9.798;2022-10-31T01:54:40;11.90;83.60
27314;DHT22;14800;48.174;9.798;2022-10-31T01:57:09;11.90;84.00
27314;DHT22;14800;48.174;9.798;2022-10-31T01:59:40;11.90;84.00
27314;DHT22;14800;48.174;9.798;2022-10-31T02:02:08;11.90;83.90
27314;DHT22;14800;48.174;9.798;2022-10-31T02:04:34;11.90;83.80
27314;DHT22;14800;48.174;9.798;2022-10-31T02:07:07;11.90;83.50
27314;DHT22;14800;48.174;9.798;2022-10-31T02:09:34;11.90;83.60
27314;DHT22;14800;48.174;9.798;2022-10-31T02:12:02;11.90;83.70
27314;DHT22;14800;48.174;9.798;2022-10-31T02:14:29;11.80;83.70
27314;DHT22;14800;48.174;9.798;2022-10-31T02:16:56;11.80;83.60
27314;DHT22;14800;48.174;9.798;2022-10-31T02:22:05;11.80;84.20
27314;DHT22;14800;48.174;9.798;2022-10-31T02:30:16;11.70;84.40
27314;DHT22;14800;48.174;9.798;2022-10-31T02:32:46;11.70;84.40
27314;DHT22;14800;48.174;9.798;2022-10-31T02:38:25;11.70;84.90
27314;DHT22;14800;48.174;9.798;2022-10-31T02:41:25;11.70;84.80
27314;DHT22;14800;48.174;9.798;2022-10-31T02:44:14;11.70;85.20
27314;DHT22;14800;48.174;9.798;2022-10-31T02:51:45;11.70;85.40
27314;DHT22;14800;48.174;9.798;2022-10-31T02:54:24;11.70;85.30
27314;DHT22;14800;48.174;9.798;2022-10-31T02:56:52;11.70;86.00
27314;DHT22;14800;48.174;9.798;2022-10-31T02:59:18;11.80;85.60
27314;DHT22;14800;48.174;9.798;2022-10-31T03:01:54;11.80;85.50
27314;DHT22;14800;48.174;9.798;2022-10-31T03:07:51;11.80;85.90
27314;DHT22;14800;48.174;9.798;2022-10-31T03:10:35;11.80;85.80
27314;DHT22;14800;48.174;9.798;2022-10-31T03:13:13;11.80;86.00
27314;DHT22;14800;48.174;9.798;2022-10-31T03:15:42;11.80;85.50
27314;DHT22;14800;48.174;9.798;2022-10-31T03:18:26;11.70;85.90
27314;DHT22;14800;48.174;9.798;2022-10-31T03:21:04;11.80;85.50
27314;DHT22;14800;48.174;9.798;2022-10-31T03:23:32;11.80;85.00
27314;DHT22;14800;48.174;9.798;2022-10-31T03:26:01;11.80;84.80
27314;DHT22;14800;48.174;9.798;2022-10-31T03:28:36;11.70;84.60
27314;DHT22;14800;48.174;9.798;2022-10-31T03:31:04;11.70;84.70
27314;DHT22;14800;48.174;9.798;2022-10-31T03:33:34;11.60;84.60
27314;DHT22;14800;48.174;9.798;2022-10-31T03:36:02;11.70;84.80
27314;DHT22;14800;48.174;9.798;2022-10-31T03:38:29;11.60;84.80
27314;DHT22;14800;48.174;9.798;2022-10-31T03:40:58;11.70;84.80
27314;DHT22;14800;48.174;9.798;2022-10-31T03:43:28;11.60;84.30
27314;DHT22;14800;48.174;9.798;2022-10-31T03:45:55;11.60;84.30
27314;DHT22;14800;48.174;9.798;2022-10-31T03:48:22;11.50;84.50
27314;DHT22;14800;48.174;9.798;2022-10-31T03:53:36;11.50;84.70
27314;DHT22;14800;48.174;9.798;2022-10-31T03:56:19;11.50;84.70
27314;DHT22;14800;48.174;9.798;2022-10-31T04:01:24;11.50;84.60
27314;DHT22;14800;48.174;9.798;2022-10-31T04:03:51;11.50;84.60
27314;DHT22;14800;48.174;9.798;2022-10-31T04:06:18;11.50;84.60
27314;DHT22;14800;48.174;9.798;2022-10-31T04:08:49;11.50;84.60
27314;DHT22;14800;48.174;9.798;2022-10-31T04:11:19;11.50;84.70
27314;DHT22;14800;48.174;9.798;2022-10-31T04:13:47;11.40;84.60
27314;DHT22;14800;48.174;9.798;2022-10-31T04:16:15;11.50;84.50
27314;DHT22;14800;48.174;9.798;2022-10-31T04:18:41;11.50;84.60
27314;DHT22;14800;48.174;9.798;2022-10-31T04:21:07;11.50;84.80
27314;DHT22;14800;48.174;9.798;2022-10-31T04:23:35;11.50;85.10
27314;DHT22;14800;48.174;9.798;2022-10-31T04:26:01;11.50;84.90
27314;DHT22;14800;48.174;9.798;2022-10-31T04:28:27;11.50;84.80
27314;DHT22;14800;48.174;9.798;2022-10-31T04:30:52;11.40;84.80
27314;DHT22;14800;48.174;9.798;2022-10-31T04:33:18;11.40;84.80
27314;DHT22;14800;48.174;9.798;2022-10-31T04:35:44;11.40;84.90
27314;DHT22;14800;48.174;9.798;2022-10-31T04:38:09;11.40;85.00
27314;DHT22;14800;48.174;9.798;2022-10-31T04:40:35;11.40;85.10
27314;DHT22;14800;48.174;9.798;2022-10-31T04:43:00;11.40;85.10
27314;DHT22;14800;48.174;9.798;2022-10-31T04:45:26;11.40;85.20
27314;DHT22;14800;48.174;9.798;2022-10-31T04:47:51;11.40;85.30
27314;DHT22;14800;48.174;9.798;2022-10-31T04:50:17;11.40;85.20
27314;DHT22;14800;48.174;9.798;2022-10-31T04:52:44;11.40;86.00
27314;DHT22;14800;48.174;9.798;2022-10-31T04:55:10;11.40;85.00
27314;DHT22;14800;48.174;9.798;2022-10-31T04:57:47;11.50;85.00
27314;DHT22;14800;48.174;9.798;2022-10-31T05:00:15;11.50;85.10
27314;DHT22;14800;48.174;9.798;2022-10-31T05:02:52;11.50;85.00
27314;DHT22;14800;48.174;9.798;2022-10-31T05:05:21;11.50;85.10
27314;DHT22;14800;48.174;9.798;2022-10-31T05:07:48;11.50;85.00
27314;DHT22;14800;48.174;9.798;2022-10-31T05:10:16;11.40;85.20
27314;DHT22;14800;48.174;9.798;2022-10-31T05:12:53;11.40;85.30
27314;DHT22;14800;48.174;9.798;2022-10-31T05:15:20;11.40;85.70
27314;DHT22;14800;48.174;9.798;2022-10-31T05:17:47;11.40;85.70
27314;DHT22;14800;48.174;9.798;2022-10-31T05:20:14;11.40;85.80
27314;DHT22;14800;48.174;9.798;2022-10-31T05:22:48;11.40;85.90
27314;DHT22;14800;48.174;9.798;2022-10-31T05:25:14;11.40;86.00
27314;DHT22;14800;48.174;9.798;2022-10-31T05:27:44;11.50;85.90
27314;DHT22;14800;48.174;9.798;2022-10-31T05:30:11;11.50;86.00
27314;DHT22;14800;48.174;9.798;2022-10-31T05:32:39;11.50;86.00
27314;DHT22;14800;48.174;9.798;2022-10-31T05:35:06;11.50;86.00
27314;DHT22;14800;48.174;9.798;2022-10-31T05:37:34;11.50;86.00
27314;DHT22;14800;48.174;9.798;2022-10-31T05:39:59;11.50;86.00
27314;DHT22;14800;48.174;9.798;2022-10-31T05:42:25;11.60;86.00
27314;DHT22;14800;48.174;9.798;2022-10-31T05:44:50;11.50;85.90
27314;DHT22;14800;48.174;9.798;2022-10-31T05:47:16;11.50;85.90
27314;DHT22;14800;48.174;9.798;2022-10-31T05:49:41;11.60;86.00
27314;DHT22;14800;48.174;9.798;2022-10-31T05:52:07;11.60;85.90
27314;DHT22;14800;48.174;9.798;2022-10-31T05:54:33;11.50;85.90
27314;DHT22;14800;48.174;9.798;2022-10-31T05:56:58;11.50;85.80
27314;DHT22;14800;48.174;9.798;2022-10-31T05:59:24;11.50;85.70
27314;DHT22;14800;48.174;9.798;2022-10-31T06:01:49;11.60;85.40
27314;DHT22;14800;48.174;9.798;2022-10-31T06:04:15;11.50;85.30
27314;DHT22;14800;48.174;9.798;2022-10-31T06:06:40;11.50;85.30
27314;DHT22;14800;48.174;9.798;2022-10-31T06:09:06;11.50;85.40
27314;DHT22;14800;48.174;9.798;2022-10-31T06:11:31;11.50;85.30
27314;DHT22;14800;48.174;9.798;2022-10-31T06:13:57;11.50;85.30
27314;DHT22;14800;48.174;9.798;2022-10-31T06:16:23;11.50;85.20
27314;DHT22;14800;48.174;9.798;2022-10-31T06:18:48;11.50;85.20
27314;DHT22;14800;48.174;9.798;2022-10-31T06:21:14;11.50;85.10
27314;DHT22;14800;48.174;9.798;2022-10-31T06:23:39;11.50;85.00
27314;DHT22;14800;48.174;9.798;2022-10-31T06:26:05;11.50;85.00
27314;DHT22;14800;48.174;9.798;2022-10-31T06:28:30;11.40;85.00
27314;DHT22;14800;48.174;9.798;2022-10-31T06:30:56;11.50;85.00
27314;DHT22;14800;48.174;9.798;2022-10-31T06:33:21;11.50;85.00
27314;DHT22;14800;48.174;9.798;2022-10-31T06:35:47;11.50;85.00
27314;DHT22;14800;48.174;9.798;2022-10-31T06:38:14;11.30;84.90
27314;DHT22;14800;48.174;9.798;2022-10-31T06:40:39;11.50;85.00
27314;DHT22;14800;48.174;9.798;2022-10-31T06:43:05;11.40;84.90
27314;DHT22;14800;48.174;9.798;2022-10-31T06:45:30;11.40;84.90
27314;DHT22;14800;48.174;9.798;2022-10-31T06:47:56;11.40;85.20
27314;DHT22;14800;48.174;9.798;2022-10-31T06:50:22;11.50;85.40
27314;DHT22;14800;48.174;9.798;2022-10-31T06:52:56;11.40;85.50
27314;DHT22;14800;48.174;9.798;2022-10-31T06:55:23;11.40;85.70
27314;DHT22;14800;48.174;9.798;2022-10-31T06:57:57;11.40;85.70
27314;DHT22;14800;48.174;9.798;2022-10-31T07:00:23;11.40;85.90
27314;DHT22;14800;48.174;9.798;2022-10-31T07:02:56;11.50;85.90
27314;DHT22;14800;48.174;9.798;2022-10-31T07:05:22;11.50;86.20
27314;DHT22;14800;48.174;9.798;2022-10-31T07:07:52;11.50;86.10
27314;DHT22;14800;48.174;9.798;2022-10-31T07:10:18;11.50;86.40
27314;DHT22;14800;48.174;9.798;2022-10-31T07:12:44;11.60;86.40
27314;DHT22;14800;48.174;9.798;2022-10-31T07:15:09;11.60;86.40
27314;DHT22;14800;48.174;9.798;2022-10-31T07:17:35;11.60;86.50
27314;DHT22;14800;48.174;9.798;2022-10-31T07:20:00;11.60;86.60
27314;DHT22;14800;48.174;9.798;2022-10-31T07:22:35;11.70;86.60
27314;DHT22;14800;48.174;9.798;2022-10-31T07:25:01;11.70;86.90
27314;DHT22;14800;48.174;9.798;2022-10-31T07:27:26;11.80;87.20
27314;DHT22;14800;48.174;9.798;2022-10-31T07:29:52;11.80;86.50
27314;DHT22;14800;48.174;9.798;2022-10-31T07:32:18;11.80;86.60
27314;DHT22;14800;48.174;9.798;2022-10-31T07:34:43;11.80;86.60
27314;DHT22;14800;48.174;9.798;2022-10-31T07:37:09;11.90;86.70
27314;DHT22;14800;48.174;9.798;2022-10-31T07:39:34;11.90;86.90
27314;DHT22;14800;48.174;9.798;2022-10-31T07:42:00;11.90;87.10
27314;DHT22;14800;48.174;9.798;2022-10-31T07:44:25;11.90;87.30
27314;DHT22;14800;48.174;9.798;2022-10-31T07:46:51;12.00;87.40
27314;DHT22;14800;48.174;9.798;2022-10-31T07:49:17;12.00;87.50
27314;DHT22;14800;48.174;9.798;2022-10-31T07:51:42;12.10;87.80
27314;DHT22;14800;48.174;9.798;2022-10-31T07:54:08;12.10;87.90
27314;DHT22;14800;48.174;9.798;2022-10-31T07:56:33;12.10;88.10
27314;DHT22;14800;48.174;9.798;2022-10-31T07:58:59;12.20;88.10
27314;DHT22;14800;48.174;9.798;2022-10-31T08:01:24;12.20;88.20
27314;DHT22;14800;48.174;9.798;2022-10-31T08:03:50;12.30;88.30
27314;DHT22;14800;48.174;9.798;2022-10-31T08:06:15;12.40;88.50
27314;DHT22;14800;48.174;9.798;2022-10-31T08:08:42;12.40;88.50
27314;DHT22;14800;48.174;9.798;2022-10-31T08:11:07;12.50;88.50
27314;DHT22;14800;48.174;9.798;2022-10-31T08:13:33;12.50;88.40
27314;DHT22;14800;48.174;9.798;2022-10-31T08:15:59;12.60;88.30
27314;DHT22;14800;48.174;9.798;2022-10-31T08:18:29;12.60;88.30
27314;DHT22;14800;48.174;9.798;2022-10-31T08:20:55;12.60;88.30
27314;DHT22;14800;48.174;9.798;2022-10-31T08:23:20;12.70;88.40
27314;DHT22;14800;48.174;9.798;2022-10-31T08:25:46;12.70;88.50
27314;DHT22;14800;48.174;9.798;2022-10-31T08:28:15;12.80;88.50
27314;DHT22;14800;48.174;9.798;2022-10-31T08:30:41;12.80;88.50
27314;DHT22;14800;48.174;9.798;2022-10-31T08:33:15;12.80;88.60
27314;DHT22;14800;48.174;9.798;2022-10-31T08:35:41;12.90;88.80
27314;DHT22;14800;48.174;9.798;2022-10-31T08:38:08;12.90;88.60
27314;DHT22;14800;48.174;9.798;2022-10-31T08:40:35;13.00;88.70
27314;DHT22;14800;48.174;9.798;2022-10-31T08:43:06;13.00;88.70
27314;DHT22;14800;48.174;9.798;2022-10-31T08:45:33;13.00;88.80
27314;DHT22;14800;48.174;9.798;2022-10-31T08:48:04;13.00;88.70
27314;DHT22;14800;48.174;9.798;2022-10-31T08:50:32;13.10;88.80
27314;DHT22;14800;48.174;9.798;2022-10-31T08:53:18;13.20;88.80
27314;DHT22;14800;48.174;9.798;2022-10-31T08:55:45;13.20;89.30
27314;DHT22;14800;48.174;9.798;2022-10-31T08:58:13;13.30;89.70
27314;DHT22;14800;48.174;9.798;2022-10-31T09:00:39;13.30;89.00
27314;DHT22;14800;48.174;9.798;2022-10-31T09:03:08;13.40;89.00
27314;DHT22;14800;48.174;9.798;2022-10-31T09:05:34;13.40;89.00
27314;DHT22;14800;48.174;9.798;2022-10-31T09:08:02;13.50;89.00
27314;DHT22;14800;48.174;9.798;2022-10-31T09:10:28;13.50;89.00
27314;DHT22;14800;48.174;9.798;2022-10-31T09:12:59;13.60;89.10
27314;DHT22;14800;48.174;9.798;2022-10-31T09:15:26;13.60;89.90
27314;DHT22;14800;48.174;9.798;2022-10-31T09:17:52;13.80;89.10
27314;DHT22;14800;48.174;9.798;2022-10-31T09:20:18;13.80;89.00
27314;DHT22;14800;48.174;9.798;2022-10-31T09:22:44;13.80;89.00
27314;DHT22;14800;48.174;9.798;2022-10-31T09:25:10;13.90;88.90
27314;DHT22;14800;48.174;9.798;2022-10-31T09:27:35;14.00;88.80
27314;DHT22;14800;48.174;9.798;2022-10-31T09:30:02;14.00;88.80
27314;DHT22;14800;48.174;9.798;2022-10-31T09:32:28;14.10;88.80
27314;DHT22;14800;48.174;9.798;2022-10-31T09:34:53;14.20;88.70
27314;DHT22;14800;48.174;9.798;2022-10-31T09:37:19;14.30;88.40
27314;DHT22;14800;48.174;9.798;2022-10-31T09:39:44;14.40;88.20
27314;DHT22;14800;48.174;9.798;2022-10-31T09:51:23;14.70;88.80
27314;DHT22;14800;48.174;9.798;2022-10-31T09:53:54;14.70;88.30
27314;DHT22;14800;48.174;9.798;2022-10-31T09:56:25;14.80;88.30
27314;DHT22;14800;48.174;9.798;2022-10-31T09:58:54;14.80;88.30
27314;DHT22;14800;48.174;9.798;2022-10-31T10:01:34;14.90;88.50
27314;DHT22;14800;48.174;9.798;2022-10-31T10:04:18;15.00;88.80
27314;DHT22;14800;48.174;9.798;2022-10-31T10:06:47;15.00;88.70
27314;DHT22;14800;48.174;9.798;2022-10-31T10:09:14;15.10;88.30
27314;DHT22;14800;48.174;9.798;2022-10-31T10:11:52;15.10;88.30
27314;DHT22;14800;48.174;9.798;2022-10-31T10:14:32;15.20;88.50
27314;DHT22;14800;48.174;9.798;2022-10-31T10:19:58;15.30;88.10
27314;DHT22;14800;48.174;9.798;2022-10-31T10:22:39;15.30;87.70
27314;DHT22;14800;48.174;9.798;2022-10-31T10:25:22;15.40;87.10
27314;DHT22;14800;48.174;9.798;2022-10-31T10:30:59;15.40;86.70
27314;DHT22;14800;48.174;9.798;2022-10-31T10:33:59;15.40;86.40
27314;DHT22;14800;48.174;9.798;2022-10-31T10:36:32;15.50;86.50
27314;DHT22;14800;48.174;9.798;2022-10-31T10:39:07;15.50;86.30
27314;DHT22;14800;48.174;9.798;2022-10-31T10:41:34;15.50;86.40
27314;DHT22;14800;48.174;9.798;2022-10-31T10:44:00;15.60;86.60
27314;DHT22;14800;48.174;9.798;2022-10-31T10:46:42;15.60;86.60
27314;DHT22;14800;48.174;9.798;2022-10-31T10:49:38;15.60;86.50
27314;DHT22;14800;48.174;9.798;2022-10-31T10:54:56;15.70;86.90
27314;DHT22;14800;48.174;9.798;2022-10-31T11:00:18;15.80;87.60
27314;DHT22;14800;48.174;9.798;2022-10-31T11:02:44;15.90;87.70
27314;DHT22;14800;48.174;9.798;2022-10-31T11:08:00;16.00;87.80
27314;DHT22;14800;48.174;9.798;2022-10-31T11:10:25;16.10;87.60
27314;DHT22;14800;48.174;9.798;2022-10-31T11:13:17;16.10;87.40
27314;DHT22;14800;48.174;9.798;2022-10-31T11:16:06;16.30;87.50
27314;DHT22;14800;48.174;9.798;2022-10-31T11:18:34;16.30;87.50
27314;DHT22;14800;48.174;9.798;2022-10-31T11:21:03;16.40;87.40
27314;DHT22;14800;48.174;9.798;2022-10-31T11:23:30;16.40;88.10
27314;DHT22;14800;48.174;9.798;2022-10-31T11:26:04;16.50;87.40
27314;DHT22;14800;48.174;9.798;2022-10-31T11:28:31;16.50;87.40
27314;DHT22;14800;48.174;9.798;2022-10-31T11:31:05;16.60;87.50
27314;DHT22;14800;48.174;9.798;2022-10-31T11:33:35;16.70;87.40
27314;DHT22;14800;48.174;9.798;2022-10-31T11:36:13;16.80;87.40
27314;DHT22;14800;48.174;9.798;2022-10-31T11:38:41;16.90;87.30
27314;DHT22;14800;48.174;9.798;2022-10-31T11:43:52;17.00;87.10
27314;DHT22;14800;48.174;9.798;2022-10-31T11:46:22;17.00;87.20
27314;DHT22;14800;48.174;9.798;2022-10-31T11:48:51;17.00;87.00
27314;DHT22;14800;48.174;9.798;2022-10-31T11:51:26;17.10;87.20
27314;DHT22;14800;48.174;9.798;2022-10-31T11:53:57;17.20;87.30
27314;DHT22;14800;48.174;9.798;2022-10-31T11:56:23;17.20;87.00
27314;DHT22;14800;48.174;9.798;2022-10-31T11:59:03;17.30;86.70
27314;DHT22;14800;48.174;9.798;2022-10-31T12:01:32;17.40;86.40
27314;DHT22;14800;48.174;9.798;2022-10-31T12:04:11;17.40;86.20
27314;DHT22;14800;48.174;9.798;2022-10-31T12:06:39;17.50;86.00
27314;DHT22;14800;48.174;9.798;2022-10-31T12:09:20;17.60;86.20
27314;DHT22;14800;48.174;9.798;2022-10-31T12:17:18;17.70;85.50
27314;DHT22;14800;48.174;9.798;2022-10-31T12:30:29;17.90;84.60
27314;DHT22;14800;48.174;9.798;2022-10-31T12:33:15;17.90;84.20
27314;DHT22;14800;48.174;9.798;2022-10-31T12:49:34;18.10;83.40
27314;DHT22;14800;48.174;9.798;2022-10-31T12:52:11;18.10;82.80
27314;DHT22;14800;48.174;9.798;2022-10-31T12:55:11;18.10;83.10
27314;DHT22;14800;48.174;9.798;2022-10-31T12:57:44;18.10;82.20
27314;DHT22;14800;48.174;9.798;2022-10-31T13:00:18;18.10;82.70
27314;DHT22;14800;48.174;9.798;2022-10-31T13:05:33;18.10;82.90
27314;DHT22;14800;48.174;9.798;2022-10-31T13:10:44;18.20;83.30
27314;DHT22;14800;48.174;9.798;2022-10-31T13:16:04;18.20;83.10
27314;DHT22;14800;48.174;9.798;2022-10-31T13:19:20;18.20;82.90
27314;DHT22;14800;48.174;9.798;2022-10-31T13:21:34;18.20;82.90
27314;DHT22;14800;48.174;9.798;2022-10-31T13:24:04;18.20;82.90
27314;DHT22;14800;48.174;9.798;2022-10-31T13:29:39;18.30;82.70
27314;DHT22;14800;48.174;9.798;2022-10-31T13:32:08;18.40;82.50
27314;DHT22;14800;48.174;9.798;2022-10-31T13:34:37;18.40;82.70
27314;DHT22;14800;48.174;9.798;2022-10-31T13:37:17;18.40;82.30
27314;DHT22;14800;48.174;9.798;2022-10-31T13:39:49;18.50;81.90
27314;DHT22;14800;48.174;9.798;2022-10-31T13:42:31;18.50;82.10
27314;DHT22;14800;48.174;9.798;2022-10-31T13:45:14;18.60;82.00
27314;DHT22;14800;48.174;9.798;2022-10-31T13:47:41;18.60;81.90
27314;DHT22;14800;48.174;9.798;2022-10-31T13:50:24;18.60;82.00
27314;DHT22;14800;48.174;9.798;2022-10-31T13:52:51;18.70;81.60
27314;DHT22;14800;48.174;9.798;2022-10-31T13:55:42;18.70;82.00
27314;DHT22;14800;48.174;9.798;2022-10-31T13:58:27;18.80;82.20
27314;DHT22;14800;48.174;9.798;2022-10-31T14:01:15;18.80;81.90
27314;DHT22;14800;48.174;9.798;2022-10-31T14:03:44;18.80;81.70
27314;DHT22;14800;48.174;9.798;2022-10-31T14:06:11;18.90;81.90
27314;DHT22;14800;48.174;9.798;2022-10-31T14:08:40;18.90;81.70
27314;DHT22;14800;48.174;9.798;2022-10-31T14:11:09;18.90;81.50
27314;DHT22;14800;48.174;9.798;2022-10-31T14:13:45;18.90;81.40
27314;DHT22;14800;48.174;9.798;2022-10-31T14:19:01;19.00;81.10
27314;DHT22;14800;48.174;9.798;2022-10-31T14:21:28;18.90;81.20
27314;DHT22;14800;48.174;9.798;2022-10-31T14:23:56;18.90;81.20
27314;DHT22;14800;48.174;9.798;2022-10-31T14:45:49;19.00;81.20
27314;DHT22;14800;48.174;9.798;2022-10-31T14:48:41;19.00;81.00
27314;DHT22;14800;48.174;9.798;2022-10-31T14:51:21;19.00;80.70
27314;DHT22;14800;48.174;9.798;2022-10-31T14:53:52;19.10;81.00
27314;DHT22;14800;48.174;9.798;2022-10-31T14:56:24;19.00;80.80
27314;DHT22;14800;48.174;9.798;2022-10-31T14:58:53;19.10;80.80
27314;DHT22;14800;48.174;9.798;2022-10-31T15:01:35;19.00;80.60
27314;DHT22;14800;48.174;9.798;2022-10-31T15:06:46;19.10;80.40
27314;DHT22;14800;48.174;9.798;2022-10-31T15:11:50;19.10;80.30
27314;DHT22;14800;48.174;9.798;2022-10-31T15:14:25;19.10;81.50
27314;DHT22;14800;48.174;9.798;2022-10-31T15:16:52;19.00;80.50
27314;DHT22;14800;48.174;9.798;2022-10-31T15:19:23;19.00;80.60
27314;DHT22;14800;48.174;9.798;2022-10-31T15:21:51;19.00;80.60
27314;DHT22;14800;48.174;9.798;2022-10-31T15:24:17;19.00;80.80
27314;DHT22;14800;48.174;9.798;2022-10-31T15:26:52;19.00;80.80
27314;DHT22;14800;48.174;9.798;2022-10-31T15:29:21;18.90;80.50
27314;DHT22;14800;48.174;9.798;2022-10-31T15:31:56;18.90;80.60
27314;DHT22;14800;48.174;9.798;2022-10-31T15:34:42;18.90;80.60
27314;DHT22;14800;48.174;9.798;2022-10-31T15:37:19;18.80;80.60
27314;DHT22;14800;48.174;9.798;2022-10-31T15:39:46;18.80;80.50
27314;DHT22;14800;48.174;9.798;2022-10-31T15:44:47;18.70;80.10
27314;DHT22;14800;48.174;9.798;2022-10-31T15:47:19;18.60;80.00
27314;DHT22;14800;48.174;9.798;2022-10-31T15:49:51;18.60;80.00
27314;DHT22;14800;48.174;9.798;2022-10-31T15:55:00;18.30;79.90
27314;DHT22;14800;48.174;9.798;2022-10-31T15:57:26;18.30;80.10
27314;DHT22;14800;48.174;9.798;2022-10-31T15:59:52;18.10;80.30
27314;DHT22;14800;48.174;9.798;2022-10-31T16:02:23;18.00;80.30
27314;DHT22;14800;48.174;9.798;2022-10-31T16:05:00;17.90;80.30
27314;DHT22;14800;48.174;9.798;2022-10-31T16:07:27;17.80;80.50
27314;DHT22;14800;48.174;9.798;2022-10-31T16:12:26;17.60;80.50
27314;DHT22;14800;48.174;9.798;2022-10-31T16:14:54;17.60;80.50
27314;DHT22;14800;48.174;9.798;2022-10-31T16:17:23;17.60;80.60
27314;DHT22;14800;48.174;9.798;2022-10-31T16:20:04;17.50;80.70
27314;DHT22;14800;48.174;9.798;2022-10-31T16:22:35;17.40;80.90
27314;DHT22;14800;48.174;9.798;2022-10-31T16:27:33;17.10;80.80
27314;DHT22;14800;48.174;9.798;2022-10-31T16:30:00;17.00;81.00
27314;DHT22;14800;48.174;9.798;2022-10-31T16:32:34;16.90;81.00
27314;DHT22;14800;48.174;9.798;2022-10-31T16:35:18;16.90;81.10
27314;DHT22;14800;48.174;9.798;2022-10-31T16:37:44;16.80;81.30
27314;DHT22;14800;48.174;9.798;2022-10-31T16:40:11;16.80;81.30
27314;DHT22;14800;48.174;9.798;2022-10-31T16:42:39;16.70;81.30
27314;DHT22;14800;48.174;9.798;2022-10-31T16:45:06;16.70;81.30
27314;DHT22;14800;48.174;9.798;2022-10-31T16:47:32;16.60;81.50
27314;DHT22;14800;48.174;9.798;2022-10-31T16:49:57;16.60;81.70
27314;DHT22;14800;48.174;9.798;2022-10-31T16:52:25;16.50;81.30
27314;DHT22;14800;48.174;9.798;2022-10-31T16:54:51;16.40;81.50
27314;DHT22;14800;48.174;9.798;2022-10-31T16:57:25;16.30;81.70
27314;DHT22;14800;48.174;9.798;2022-10-31T16:59:52;16.30;82.00
27314;DHT22;14800;48.174;9.798;2022-10-31T17:02:19;16.20;82.20
27314;DHT22;14800;48.174;9.798;2022-10-31T17:04:45;16.10;82.30
27314;DHT22;14800;48.174;9.798;2022-10-31T17:07:11;16.00;82.60
27314;DHT22;14800;48.174;9.798;2022-10-31T17:09:36;16.00;82.70
27314;DHT22;14800;48.174;9.798;2022-10-31T17:12:02;15.90;82.90
27314;DHT22;14800;48.174;9.798;2022-10-31T17:14:28;15.80;83.30
27314;DHT22;14800;48.174;9.798;2022-10-31T17:16:54;15.80;83.40
27314;DHT22;14800;48.174;9.798;2022-10-31T17:19:19;15.70;83.10
27314;DHT22;14800;48.174;9.798;2022-10-31T17:21:45;15.60;82.80
27314;DHT22;14800;48.174;9.798;2022-10-31T17:24:14;15.60;82.70
27314;DHT22;14800;48.174;9.798;2022-10-31T17:26:40;15.50;82.90
27314;DHT22;14800;48.174;9.798;2022-10-31T17:29:06;15.50;83.10
27314;DHT22;14800;48.174;9.798;2022-10-31T17:31:34;15.50;83.30
27314;DHT22;14800;48.174;9.798;2022-10-31T17:34:03;15.40;83.10
27314;DHT22;14800;48.174;9.798;2022-10-31T17:36:31;15.30;83.20
27314;DHT22;14800;48.174;9.798;2022-10-31T17:38:57;15.20;83.20
27314;DHT22;14800;48.174;9.798;2022-10-31T17:41:23;15.20;83.40
27314;DHT22;14800;48.174;9.798;2022-10-31T17:43:53;15.20;83.40
27314;DHT22;14800;48.174;9.798;2022-10-31T17:46:18;15.10;84.20
27314;DHT22;14800;48.174;9.798;2022-10-31T17:48:44;15.10;83.60
27314;DHT22;14800;48.174;9.798;2022-10-31T17:51:09;15.10;83.80
27314;DHT22;14800;48.174;9.798;2022-10-31T17:53:35;15.00;83.50
27314;DHT22;14800;48.174;9.798;2022-10-31T17:58:27;14.90;83.30
27314;DHT22;14800;48.174;9.798;2022-10-31T18:00:53;14.90;83.30
27314;DHT22;14800;48.174;9.798;2022-10-31T18:03:18;14.80;83.20